Flugplatz Buchel Airport

Bericht für ETSB

vom 11.08. um 23:20 UTC

Wind 6 kt aus 60°

Sichtweite 6000 m

Temperatur 19.0°C

Taupunkt 17.0°C

Luftfeuchtigkeit 88%

Luftdruck 1017 hPa

ETSB 112320Z AUTO 06006KT 6000 // ////// 19/17 Q1017 ///
Keine Prognose (TAF) verfügbar.
Impressum